sensor_id;sensor_type;location;lat;lon;timestamp;temperature;humidity
36660;DHT22;22654;51.054;3.654;2022-10-31T00:00:22;12.70;99.90
36660;DHT22;22654;51.054;3.654;2022-10-31T00:02:48;12.40;99.90
36660;DHT22;22654;51.054;3.654;2022-10-31T00:05:13;12.20;99.90
36660;DHT22;22654;51.054;3.654;2022-10-31T00:07:39;12.00;99.90
36660;DHT22;22654;51.054;3.654;2022-10-31T00:10:05;12.20;99.90
36660;DHT22;22654;51.054;3.654;2022-10-31T00:12:31;12.60;99.90
36660;DHT22;22654;51.054;3.654;2022-10-31T00:14:57;12.90;99.90
36660;DHT22;22654;51.054;3.654;2022-10-31T00:17:23;12.90;99.90
36660;DHT22;22654;51.054;3.654;2022-10-31T00:19:49;12.40;99.90
36660;DHT22;22654;51.054;3.654;2022-10-31T00:22:15;12.10;99.90
36660;DHT22;22654;51.054;3.654;2022-10-31T00:24:40;11.90;99.90
36660;DHT22;22654;51.054;3.654;2022-10-31T00:27:06;11.70;99.90
36660;DHT22;22654;51.054;3.654;2022-10-31T00:29:32;11.60;99.90
36660;DHT22;22654;51.054;3.654;2022-10-31T00:31:58;11.60;99.90
36660;DHT22;22654;51.054;3.654;2022-10-31T00:34:23;11.90;99.90
36660;DHT22;22654;51.054;3.654;2022-10-31T00:36:49;12.40;99.90
36660;DHT22;22654;51.054;3.654;2022-10-31T00:39:15;12.60;99.90
36660;DHT22;22654;51.054;3.654;2022-10-31T00:41:41;12.70;99.90
36660;DHT22;22654;51.054;3.654;2022-10-31T00:44:11;12.60;99.90
36660;DHT22;22654;51.054;3.654;2022-10-31T00:46:37;12.40;99.90
36660;DHT22;22654;51.054;3.654;2022-10-31T00:49:03;12.20;99.90
36660;DHT22;22654;51.054;3.654;2022-10-31T00:51:29;11.90;99.90
36660;DHT22;22654;51.054;3.654;2022-10-31T00:53:54;11.70;99.90
36660;DHT22;22654;51.054;3.654;2022-10-31T00:56:21;11.70;99.90
36660;DHT22;22654;51.054;3.654;2022-10-31T00:58:47;11.60;99.90
36660;DHT22;22654;51.054;3.654;2022-10-31T01:01:12;11.60;99.90
36660;DHT22;22654;51.054;3.654;2022-10-31T01:03:38;11.50;99.90
36660;DHT22;22654;51.054;3.654;2022-10-31T01:06:11;11.50;99.90
36660;DHT22;22654;51.054;3.654;2022-10-31T01:08:38;11.60;99.90
36660;DHT22;22654;51.054;3.654;2022-10-31T01:11:09;11.50;99.90
36660;DHT22;22654;51.054;3.654;2022-10-31T01:13:35;11.60;99.90
36660;DHT22;22654;51.054;3.654;2022-10-31T01:16:03;11.60;99.90
36660;DHT22;22654;51.054;3.654;2022-10-31T01:18:32;11.70;99.90
36660;DHT22;22654;51.054;3.654;2022-10-31T01:21:00;12.00;99.90
36660;DHT22;22654;51.054;3.654;2022-10-31T01:23:27;12.40;99.90
36660;DHT22;22654;51.054;3.654;2022-10-31T01:26:11;12.30;99.90
36660;DHT22;22654;51.054;3.654;2022-10-31T01:28:47;11.90;99.90
36660;DHT22;22654;51.054;3.654;2022-10-31T01:31:14;11.70;99.90
36660;DHT22;22654;51.054;3.654;2022-10-31T01:33:40;11.60;99.90
36660;DHT22;22654;51.054;3.654;2022-10-31T01:38:41;11.40;99.90
36660;DHT22;22654;51.054;3.654;2022-10-31T01:41:10;11.30;99.90
36660;DHT22;22654;51.054;3.654;2022-10-31T01:43:56;11.30;99.90
36660;DHT22;22654;51.054;3.654;2022-10-31T01:46:29;11.40;99.90
36660;DHT22;22654;51.054;3.654;2022-10-31T01:48:57;11.60;99.90
36660;DHT22;22654;51.054;3.654;2022-10-31T01:51:28;11.90;99.90
36660;DHT22;22654;51.054;3.654;2022-10-31T01:53:58;11.80;99.90
36660;DHT22;22654;51.054;3.654;2022-10-31T01:56:25;11.50;99.90
36660;DHT22;22654;51.054;3.654;2022-10-31T01:58:51;11.50;99.90
36660;DHT22;22654;51.054;3.654;2022-10-31T02:01:18;11.60;99.90
36660;DHT22;22654;51.054;3.654;2022-10-31T02:03:45;11.50;99.90
36660;DHT22;22654;51.054;3.654;2022-10-31T02:06:27;11.40;99.90
36660;DHT22;22654;51.054;3.654;2022-10-31T02:08:58;11.20;99.90
36660;DHT22;22654;51.054;3.654;2022-10-31T02:11:28;11.50;99.90
36660;DHT22;22654;51.054;3.654;2022-10-31T02:13:54;11.90;99.90
36660;DHT22;22654;51.054;3.654;2022-10-31T02:16:22;12.10;99.90
36660;DHT22;22654;51.054;3.654;2022-10-31T02:18:47;12.10;99.90
36660;DHT22;22654;51.054;3.654;2022-10-31T02:21:18;12.10;99.90
36660;DHT22;22654;51.054;3.654;2022-10-31T02:27:07;12.10;99.90
36660;DHT22;22654;51.054;3.654;2022-10-31T02:46:48;11.50;99.90
36660;DHT22;22654;51.054;3.654;2022-10-31T02:49:31;11.20;99.90
36660;DHT22;22654;51.054;3.654;2022-10-31T02:51:59;11.20;99.90
36660;DHT22;22654;51.054;3.654;2022-10-31T02:54:26;11.50;99.90
36660;DHT22;22654;51.054;3.654;2022-10-31T02:57:03;11.70;99.90
36660;DHT22;22654;51.054;3.654;2022-10-31T02:59:31;11.90;99.90
36660;DHT22;22654;51.054;3.654;2022-10-31T03:15:50;11.00;99.90
36660;DHT22;22654;51.054;3.654;2022-10-31T03:18:29;10.80;99.90
36660;DHT22;22654;51.054;3.654;2022-10-31T03:23:35;10.90;99.90
36660;DHT22;22654;51.054;3.654;2022-10-31T03:26:05;11.00;99.90
36660;DHT22;22654;51.054;3.654;2022-10-31T03:28:57;11.40;99.90
36660;DHT22;22654;51.054;3.654;2022-10-31T03:31:29;11.80;99.90
36660;DHT22;22654;51.054;3.654;2022-10-31T03:33:59;11.80;99.90
36660;DHT22;22654;51.054;3.654;2022-10-31T03:36:30;11.80;99.90
36660;DHT22;22654;51.054;3.654;2022-10-31T03:39:00;11.70;99.90
36660;DHT22;22654;51.054;3.654;2022-10-31T03:41:29;11.50;99.90
36660;DHT22;22654;51.054;3.654;2022-10-31T03:44:06;11.60;99.90
36660;DHT22;22654;51.054;3.654;2022-10-31T03:46:36;11.50;99.90
36660;DHT22;22654;51.054;3.654;2022-10-31T03:49:03;11.20;99.90
36660;DHT22;22654;51.054;3.654;2022-10-31T03:57:03;11.50;99.90
36660;DHT22;22654;51.054;3.654;2022-10-31T03:59:37;11.50;99.90
36660;DHT22;22654;51.054;3.654;2022-10-31T04:02:07;11.50;99.90
36660;DHT22;22654;51.054;3.654;2022-10-31T04:04:37;11.30;99.90
36660;DHT22;22654;51.054;3.654;2022-10-31T04:07:06;11.30;99.90
36660;DHT22;22654;51.054;3.654;2022-10-31T04:09:36;11.60;99.90
36660;DHT22;22654;51.054;3.654;2022-10-31T04:12:04;11.60;99.90
36660;DHT22;22654;51.054;3.654;2022-10-31T04:14:41;11.30;99.90
36660;DHT22;22654;51.054;3.654;2022-10-31T04:17:11;10.90;99.90
36660;DHT22;22654;51.054;3.654;2022-10-31T04:19:40;10.80;99.90
36660;DHT22;22654;51.054;3.654;2022-10-31T04:22:06;10.60;99.90
36660;DHT22;22654;51.054;3.654;2022-10-31T04:24:37;10.70;99.90
36660;DHT22;22654;51.054;3.654;2022-10-31T04:27:04;10.70;99.90
36660;DHT22;22654;51.054;3.654;2022-10-31T04:29:30;10.60;99.90
36660;DHT22;22654;51.054;3.654;2022-10-31T04:31:56;10.50;99.90
36660;DHT22;22654;51.054;3.654;2022-10-31T04:34:22;10.50;99.90
36660;DHT22;22654;51.054;3.654;2022-10-31T04:36:49;10.40;99.90
36660;DHT22;22654;51.054;3.654;2022-10-31T04:39:16;10.50;99.90
36660;DHT22;22654;51.054;3.654;2022-10-31T04:42:05;10.70;99.90
36660;DHT22;22654;51.054;3.654;2022-10-31T04:44:31;10.60;99.90
36660;DHT22;22654;51.054;3.654;2022-10-31T04:47:00;10.40;99.90
36660;DHT22;22654;51.054;3.654;2022-10-31T04:49:25;10.40;99.90
36660;DHT22;22654;51.054;3.654;2022-10-31T04:51:52;10.60;99.90
36660;DHT22;22654;51.054;3.654;2022-10-31T04:54:18;10.80;99.90
36660;DHT22;22654;51.054;3.654;2022-10-31T04:57:02;10.80;99.90
36660;DHT22;22654;51.054;3.654;2022-10-31T04:59:29;10.50;99.90
36660;DHT22;22654;51.054;3.654;2022-10-31T05:01:55;10.30;99.90
36660;DHT22;22654;51.054;3.654;2022-10-31T05:04:29;10.20;99.90
36660;DHT22;22654;51.054;3.654;2022-10-31T05:06:56;10.00;99.90
36660;DHT22;22654;51.054;3.654;2022-10-31T05:09:22;10.10;99.90
36660;DHT22;22654;51.054;3.654;2022-10-31T05:11:47;10.10;99.90
36660;DHT22;22654;51.054;3.654;2022-10-31T05:14:33;9.90;99.90
36660;DHT22;22654;51.054;3.654;2022-10-31T05:17:35;9.70;99.90
36660;DHT22;22654;51.054;3.654;2022-10-31T05:20:26;9.80;99.90
36660;DHT22;22654;51.054;3.654;2022-10-31T05:23:08;9.90;99.90
36660;DHT22;22654;51.054;3.654;2022-10-31T05:25:34;9.70;99.90
36660;DHT22;22654;51.054;3.654;2022-10-31T05:28:03;9.70;99.90
36660;DHT22;22654;51.054;3.654;2022-10-31T05:30:30;9.70;99.90
36660;DHT22;22654;51.054;3.654;2022-10-31T05:32:57;9.50;99.90
36660;DHT22;22654;51.054;3.654;2022-10-31T05:35:56;9.40;99.90
36660;DHT22;22654;51.054;3.654;2022-10-31T05:38:33;9.50;99.90
36660;DHT22;22654;51.054;3.654;2022-10-31T05:41:08;9.40;99.90
36660;DHT22;22654;51.054;3.654;2022-10-31T05:43:39;9.60;99.90
36660;DHT22;22654;51.054;3.654;2022-10-31T05:46:06;9.70;99.90
36660;DHT22;22654;51.054;3.654;2022-10-31T05:48:54;9.80;99.90
36660;DHT22;22654;51.054;3.654;2022-10-31T05:51:59;10.00;99.90
36660;DHT22;22654;51.054;3.654;2022-10-31T05:54:33;10.00;99.90
36660;DHT22;22654;51.054;3.654;2022-10-31T05:56:59;9.80;99.90
36660;DHT22;22654;51.054;3.654;2022-10-31T05:59:25;9.70;99.90
36660;DHT22;22654;51.054;3.654;2022-10-31T06:01:51;9.60;99.90
36660;DHT22;22654;51.054;3.654;2022-10-31T06:04:40;9.40;99.90
36660;DHT22;22654;51.054;3.654;2022-10-31T06:07:07;9.30;99.90
36660;DHT22;22654;51.054;3.654;2022-10-31T06:09:35;9.30;99.90
36660;DHT22;22654;51.054;3.654;2022-10-31T06:12:00;9.20;99.90
36660;DHT22;22654;51.054;3.654;2022-10-31T06:14:46;9.30;99.90
36660;DHT22;22654;51.054;3.654;2022-10-31T06:17:12;9.60;99.90
36660;DHT22;22654;51.054;3.654;2022-10-31T06:19:50;9.80;99.90
36660;DHT22;22654;51.054;3.654;2022-10-31T06:22:27;10.20;99.90
36660;DHT22;22654;51.054;3.654;2022-10-31T06:24:54;10.30;99.90
36660;DHT22;22654;51.054;3.654;2022-10-31T06:27:29;10.30;99.90
36660;DHT22;22654;51.054;3.654;2022-10-31T06:29:56;10.20;99.90
36660;DHT22;22654;51.054;3.654;2022-10-31T06:32:29;10.40;99.90
36660;DHT22;22654;51.054;3.654;2022-10-31T06:34:55;10.40;99.90
36660;DHT22;22654;51.054;3.654;2022-10-31T06:37:22;10.70;99.90
36660;DHT22;22654;51.054;3.654;2022-10-31T06:39:49;11.10;99.90
36660;DHT22;22654;51.054;3.654;2022-10-31T06:42:16;11.30;99.90
36660;DHT22;22654;51.054;3.654;2022-10-31T06:44:42;11.20;99.90
36660;DHT22;22654;51.054;3.654;2022-10-31T06:47:40;11.20;99.90
36660;DHT22;22654;51.054;3.654;2022-10-31T06:50:10;11.20;99.90
36660;DHT22;22654;51.054;3.654;2022-10-31T06:52:36;11.20;99.90
36660;DHT22;22654;51.054;3.654;2022-10-31T06:55:03;11.10;99.90
36660;DHT22;22654;51.054;3.654;2022-10-31T06:57:31;11.10;99.90
36660;DHT22;22654;51.054;3.654;2022-10-31T06:59:57;11.10;99.90
36660;DHT22;22654;51.054;3.654;2022-10-31T07:02:43;11.10;99.90
36660;DHT22;22654;51.054;3.654;2022-10-31T07:05:09;11.20;99.90
36660;DHT22;22654;51.054;3.654;2022-10-31T07:07:34;11.30;99.90
36660;DHT22;22654;51.054;3.654;2022-10-31T07:10:00;11.30;99.90
36660;DHT22;22654;51.054;3.654;2022-10-31T07:12:46;11.30;99.90
36660;DHT22;22654;51.054;3.654;2022-10-31T07:15:12;11.40;99.90
36660;DHT22;22654;51.054;3.654;2022-10-31T07:17:38;11.70;99.90
36660;DHT22;22654;51.054;3.654;2022-10-31T07:20:06;12.00;99.90
36660;DHT22;22654;51.054;3.654;2022-10-31T07:22:36;12.20;99.90
36660;DHT22;22654;51.054;3.654;2022-10-31T07:25:04;12.20;99.90
36660;DHT22;22654;51.054;3.654;2022-10-31T07:27:49;12.20;99.90
36660;DHT22;22654;51.054;3.654;2022-10-31T07:30:15;12.30;99.90
36660;DHT22;22654;51.054;3.654;2022-10-31T07:32:47;12.40;99.90
36660;DHT22;22654;51.054;3.654;2022-10-31T07:35:17;12.50;99.90
36660;DHT22;22654;51.054;3.654;2022-10-31T07:37:49;12.60;99.90
36660;DHT22;22654;51.054;3.654;2022-10-31T07:40:15;12.80;99.90
36660;DHT22;22654;51.054;3.654;2022-10-31T07:42:44;12.70;99.90
36660;DHT22;22654;51.054;3.654;2022-10-31T07:45:29;12.80;99.90
36660;DHT22;22654;51.054;3.654;2022-10-31T07:48:24;12.70;99.90
36660;DHT22;22654;51.054;3.654;2022-10-31T07:51:13;12.80;99.90
36660;DHT22;22654;51.054;3.654;2022-10-31T07:53:38;12.80;99.90
36660;DHT22;22654;51.054;3.654;2022-10-31T07:56:12;12.80;99.90
36660;DHT22;22654;51.054;3.654;2022-10-31T07:58:39;13.00;99.90
36660;DHT22;22654;51.054;3.654;2022-10-31T08:01:05;13.10;99.90
36660;DHT22;22654;51.054;3.654;2022-10-31T08:03:39;13.10;99.90
36660;DHT22;22654;51.054;3.654;2022-10-31T08:06:24;13.20;99.90
36660;DHT22;22654;51.054;3.654;2022-10-31T08:09:01;13.20;99.90
36660;DHT22;22654;51.054;3.654;2022-10-31T08:11:29;13.30;99.90
36660;DHT22;22654;51.054;3.654;2022-10-31T08:13:57;13.10;99.90
36660;DHT22;22654;51.054;3.654;2022-10-31T08:16:23;13.00;99.90
36660;DHT22;22654;51.054;3.654;2022-10-31T08:19:01;13.00;99.90
36660;DHT22;22654;51.054;3.654;2022-10-31T08:21:28;13.40;99.90
36660;DHT22;22654;51.054;3.654;2022-10-31T08:23:54;13.50;99.90
36660;DHT22;22654;51.054;3.654;2022-10-31T08:26:23;13.50;99.90
36660;DHT22;22654;51.054;3.654;2022-10-31T08:28:50;13.50;99.90
36660;DHT22;22654;51.054;3.654;2022-10-31T08:31:19;13.60;99.90
36660;DHT22;22654;51.054;3.654;2022-10-31T08:33:45;13.80;99.90
36660;DHT22;22654;51.054;3.654;2022-10-31T08:36:30;13.80;99.90
36660;DHT22;22654;51.054;3.654;2022-10-31T08:39:09;13.70;99.90
36660;DHT22;22654;51.054;3.654;2022-10-31T08:41:35;13.70;99.90
36660;DHT22;22654;51.054;3.654;2022-10-31T08:44:01;13.80;99.90
36660;DHT22;22654;51.054;3.654;2022-10-31T08:46:27;13.90;99.90
36660;DHT22;22654;51.054;3.654;2022-10-31T08:48:54;14.00;99.90
36660;DHT22;22654;51.054;3.654;2022-10-31T08:51:20;14.10;99.90
36660;DHT22;22654;51.054;3.654;2022-10-31T08:53:50;14.30;99.90
36660;DHT22;22654;51.054;3.654;2022-10-31T08:56:39;14.40;99.90
36660;DHT22;22654;51.054;3.654;2022-10-31T08:59:21;14.40;99.90
36660;DHT22;22654;51.054;3.654;2022-10-31T09:02:07;14.50;99.90
36660;DHT22;22654;51.054;3.654;2022-10-31T09:04:34;14.60;99.90
36660;DHT22;22654;51.054;3.654;2022-10-31T09:07:00;14.80;99.90
36660;DHT22;22654;51.054;3.654;2022-10-31T09:09:26;15.00;99.90
36660;DHT22;22654;51.054;3.654;2022-10-31T09:11:52;15.30;99.90
36660;DHT22;22654;51.054;3.654;2022-10-31T09:14:36;15.50;99.90
36660;DHT22;22654;51.054;3.654;2022-10-31T09:17:22;15.60;99.90
36660;DHT22;22654;51.054;3.654;2022-10-31T09:20:09;15.60;99.90
36660;DHT22;22654;51.054;3.654;2022-10-31T09:22:35;15.60;99.90
36660;DHT22;22654;51.054;3.654;2022-10-31T09:25:01;15.60;99.90
36660;DHT22;22654;51.054;3.654;2022-10-31T09:27:28;15.70;99.90
36660;DHT22;22654;51.054;3.654;2022-10-31T09:29:55;15.70;99.90
36660;DHT22;22654;51.054;3.654;2022-10-31T09:32:21;15.50;99.90
36660;DHT22;22654;51.054;3.654;2022-10-31T09:34:47;15.30;99.90
36660;DHT22;22654;51.054;3.654;2022-10-31T09:37:19;15.20;99.90
36660;DHT22;22654;51.054;3.654;2022-10-31T09:39:44;15.50;99.90
36660;DHT22;22654;51.054;3.654;2022-10-31T09:45:10;16.00;99.90
36660;DHT22;22654;51.054;3.654;2022-10-31T09:56:14;15.50;99.90
36660;DHT22;22654;51.054;3.654;2022-10-31T09:58:48;15.50;99.90
36660;DHT22;22654;51.054;3.654;2022-10-31T10:01:47;15.50;99.90
36660;DHT22;22654;51.054;3.654;2022-10-31T10:09:44;15.80;99.90
36660;DHT22;22654;51.054;3.654;2022-10-31T10:12:35;16.00;99.90
36660;DHT22;22654;51.054;3.654;2022-10-31T10:20:57;16.60;99.90
36660;DHT22;22654;51.054;3.654;2022-10-31T10:26:34;16.70;99.90
36660;DHT22;22654;51.054;3.654;2022-10-31T10:29:27;16.90;99.90
36660;DHT22;22654;51.054;3.654;2022-10-31T10:31:58;17.10;99.90
36660;DHT22;22654;51.054;3.654;2022-10-31T10:34:29;17.20;99.90
36660;DHT22;22654;51.054;3.654;2022-10-31T10:37:08;17.50;99.90
36660;DHT22;22654;51.054;3.654;2022-10-31T10:39:48;17.80;99.90
36660;DHT22;22654;51.054;3.654;2022-10-31T10:42:16;18.20;99.90
36660;DHT22;22654;51.054;3.654;2022-10-31T10:45:15;18.40;99.90
36660;DHT22;22654;51.054;3.654;2022-10-31T10:48:23;18.50;99.90
36660;DHT22;22654;51.054;3.654;2022-10-31T10:50:52;18.60;99.90
36660;DHT22;22654;51.054;3.654;2022-10-31T10:53:44;18.50;99.90
36660;DHT22;22654;51.054;3.654;2022-10-31T10:59:15;18.30;99.90
36660;DHT22;22654;51.054;3.654;2022-10-31T11:01:42;18.10;99.90
36660;DHT22;22654;51.054;3.654;2022-10-31T11:04:35;18.00;99.90
36660;DHT22;22654;51.054;3.654;2022-10-31T11:07:06;17.90;99.90
36660;DHT22;22654;51.054;3.654;2022-10-31T11:09:32;17.70;99.90
36660;DHT22;22654;51.054;3.654;2022-10-31T11:11:58;17.60;99.90
36660;DHT22;22654;51.054;3.654;2022-10-31T11:14:26;17.60;99.90
36660;DHT22;22654;51.054;3.654;2022-10-31T11:17:06;17.60;99.90
36660;DHT22;22654;51.054;3.654;2022-10-31T11:19:33;17.70;99.90
36660;DHT22;22654;51.054;3.654;2022-10-31T11:22:16;17.50;99.90
36660;DHT22;22654;51.054;3.654;2022-10-31T11:24:42;17.50;99.90
36660;DHT22;22654;51.054;3.654;2022-10-31T11:27:20;17.60;99.90
36660;DHT22;22654;51.054;3.654;2022-10-31T11:29:46;17.70;99.90
36660;DHT22;22654;51.054;3.654;2022-10-31T11:32:24;17.90;99.90
36660;DHT22;22654;51.054;3.654;2022-10-31T11:34:54;18.10;99.90
36660;DHT22;22654;51.054;3.654;2022-10-31T11:37:26;18.40;99.90
36660;DHT22;22654;51.054;3.654;2022-10-31T11:39:54;18.50;99.90
36660;DHT22;22654;51.054;3.654;2022-10-31T11:42:23;18.60;99.90
36660;DHT22;22654;51.054;3.654;2022-10-31T11:44:50;18.50;99.90
36660;DHT22;22654;51.054;3.654;2022-10-31T11:47:26;18.50;99.90
36660;DHT22;22654;51.054;3.654;2022-10-31T11:49:52;18.50;99.90
36660;DHT22;22654;51.054;3.654;2022-10-31T11:52:30;18.50;99.90
36660;DHT22;22654;51.054;3.654;2022-10-31T11:55:17;18.60;99.90
36660;DHT22;22654;51.054;3.654;2022-10-31T11:57:51;18.70;99.90
36660;DHT22;22654;51.054;3.654;2022-10-31T12:02:47;18.90;99.90
36660;DHT22;22654;51.054;3.654;2022-10-31T12:05:26;18.80;99.90
36660;DHT22;22654;51.054;3.654;2022-10-31T12:07:58;18.90;99.90
36660;DHT22;22654;51.054;3.654;2022-10-31T12:10:37;18.90;99.90
36660;DHT22;22654;51.054;3.654;2022-10-31T12:15:49;19.10;99.90
36660;DHT22;22654;51.054;3.654;2022-10-31T12:24:08;19.40;99.90
36660;DHT22;22654;51.054;3.654;2022-10-31T12:53:11;19.20;99.90
36660;DHT22;22654;51.054;3.654;2022-10-31T12:56:00;19.10;99.90
36660;DHT22;22654;51.054;3.654;2022-10-31T12:58:34;19.10;99.90
36660;DHT22;22654;51.054;3.654;2022-10-31T13:03:42;19.10;99.90
36660;DHT22;22654;51.054;3.654;2022-10-31T13:06:15;19.00;99.90
36660;DHT22;22654;51.054;3.654;2022-10-31T13:08:53;19.00;99.90
36660;DHT22;22654;51.054;3.654;2022-10-31T13:11:28;19.00;99.90
36660;DHT22;22654;51.054;3.654;2022-10-31T13:14:18;18.90;99.90
36660;DHT22;22654;51.054;3.654;2022-10-31T13:16:48;18.90;99.90
36660;DHT22;22654;51.054;3.654;2022-10-31T13:24:54;18.50;99.90
36660;DHT22;22654;51.054;3.654;2022-10-31T13:27:30;18.40;99.90
36660;DHT22;22654;51.054;3.654;2022-10-31T13:30:03;18.50;99.90
36660;DHT22;22654;51.054;3.654;2022-10-31T13:32:39;18.20;99.90
36660;DHT22;22654;51.054;3.654;2022-10-31T13:35:16;18.10;99.90
36660;DHT22;22654;51.054;3.654;2022-10-31T13:38:13;18.10;99.90
36660;DHT22;22654;51.054;3.654;2022-10-31T13:48:57;18.90;99.90
36660;DHT22;22654;51.054;3.654;2022-10-31T13:51:41;19.40;99.90
36660;DHT22;22654;51.054;3.654;2022-10-31T13:56:49;20.10;99.90
36660;DHT22;22654;51.054;3.654;2022-10-31T13:59:28;20.00;99.90
36660;DHT22;22654;51.054;3.654;2022-10-31T14:02:00;20.20;99.90
36660;DHT22;22654;51.054;3.654;2022-10-31T14:04:31;20.00;99.90
36660;DHT22;22654;51.054;3.654;2022-10-31T14:07:16;20.00;99.90
36660;DHT22;22654;51.054;3.654;2022-10-31T14:12:40;19.90;99.90
36660;DHT22;22654;51.054;3.654;2022-10-31T14:15:21;19.70;99.90
36660;DHT22;22654;51.054;3.654;2022-10-31T14:22:45;19.20;99.90
36660;DHT22;22654;51.054;3.654;2022-10-31T14:25:44;19.20;99.90
36660;DHT22;22654;51.054;3.654;2022-10-31T14:28:21;19.20;99.90
36660;DHT22;22654;51.054;3.654;2022-10-31T14:30:55;19.30;99.90
36660;DHT22;22654;51.054;3.654;2022-10-31T14:33:24;19.30;99.90
36660;DHT22;22654;51.054;3.654;2022-10-31T14:36:04;19.20;99.90
36660;DHT22;22654;51.054;3.654;2022-10-31T14:44:51;18.60;99.90
36660;DHT22;22654;51.054;3.654;2022-10-31T14:46:52;18.40;99.90
36660;DHT22;22654;51.054;3.654;2022-10-31T14:52:07;18.50;99.90
36660;DHT22;22654;51.054;3.654;2022-10-31T14:54:39;18.80;99.90
36660;DHT22;22654;51.054;3.654;2022-10-31T14:57:13;19.20;99.90
36660;DHT22;22654;51.054;3.654;2022-10-31T14:59:43;19.30;99.90
36660;DHT22;22654;51.054;3.654;2022-10-31T15:02:23;19.50;99.90
36660;DHT22;22654;51.054;3.654;2022-10-31T15:04:51;19.40;99.90
36660;DHT22;22654;51.054;3.654;2022-10-31T15:07:24;19.40;99.90
36660;DHT22;22654;51.054;3.654;2022-10-31T15:10:01;19.20;99.90
36660;DHT22;22654;51.054;3.654;2022-10-31T15:12:32;18.90;99.90
36660;DHT22;22654;51.054;3.654;2022-10-31T15:15:14;18.70;99.90
36660;DHT22;22654;51.054;3.654;2022-10-31T15:17:48;18.50;99.90
36660;DHT22;22654;51.054;3.654;2022-10-31T15:20:22;18.20;99.90
36660;DHT22;22654;51.054;3.654;2022-10-31T15:22:49;18.10;99.90
36660;DHT22;22654;51.054;3.654;2022-10-31T15:25:20;17.90;99.90
36660;DHT22;22654;51.054;3.654;2022-10-31T15:27:48;17.90;99.90
36660;DHT22;22654;51.054;3.654;2022-10-31T15:30:19;18.10;99.90
36660;DHT22;22654;51.054;3.654;2022-10-31T15:32:46;18.20;99.90
36660;DHT22;22654;51.054;3.654;2022-10-31T15:35:24;18.30;99.90
36660;DHT22;22654;51.054;3.654;2022-10-31T15:37:54;18.20;99.90
36660;DHT22;22654;51.054;3.654;2022-10-31T15:40:22;18.30;99.90
36660;DHT22;22654;51.054;3.654;2022-10-31T15:43:01;18.30;99.90
36660;DHT22;22654;51.054;3.654;2022-10-31T15:45:29;18.10;99.90
36660;DHT22;22654;51.054;3.654;2022-10-31T15:48:02;18.10;99.90
36660;DHT22;22654;51.054;3.654;2022-10-31T15:50:32;18.00;99.90
36660;DHT22;22654;51.054;3.654;2022-10-31T15:52:59;17.90;99.90
36660;DHT22;22654;51.054;3.654;2022-10-31T15:55:27;17.80;99.90
36660;DHT22;22654;51.054;3.654;2022-10-31T15:58:00;17.70;99.90
36660;DHT22;22654;51.054;3.654;2022-10-31T16:00:32;17.60;99.90
36660;DHT22;22654;51.054;3.654;2022-10-31T16:05:49;17.50;99.90
36660;DHT22;22654;51.054;3.654;2022-10-31T16:08:32;17.50;99.90
36660;DHT22;22654;51.054;3.654;2022-10-31T16:16:26;17.30;99.90
36660;DHT22;22654;51.054;3.654;2022-10-31T16:18:54;17.20;99.90
36660;DHT22;22654;51.054;3.654;2022-10-31T16:21:26;17.10;99.90
36660;DHT22;22654;51.054;3.654;2022-10-31T16:23:57;17.00;99.90
36660;DHT22;22654;51.054;3.654;2022-10-31T16:26:24;17.00;99.90
36660;DHT22;22654;51.054;3.654;2022-10-31T16:28:52;17.00;99.90
36660;DHT22;22654;51.054;3.654;2022-10-31T16:31:36;16.90;99.90
36660;DHT22;22654;51.054;3.654;2022-10-31T16:34:22;16.90;99.90
36660;DHT22;22654;51.054;3.654;2022-10-31T16:36:48;16.80;99.90
36660;DHT22;22654;51.054;3.654;2022-10-31T16:39:14;16.80;99.90
36660;DHT22;22654;51.054;3.654;2022-10-31T16:41:41;16.80;99.90
36660;DHT22;22654;51.054;3.654;2022-10-31T16:44:23;16.70;99.90
36660;DHT22;22654;51.054;3.654;2022-10-31T16:47:12;16.60;99.90
36660;DHT22;22654;51.054;3.654;2022-10-31T16:49:38;16.50;99.90
36660;DHT22;22654;51.054;3.654;2022-10-31T16:52:05;16.50;99.90
36660;DHT22;22654;51.054;3.654;2022-10-31T16:54:31;16.50;99.90
36660;DHT22;22654;51.054;3.654;2022-10-31T16:56:59;16.50;99.90
36660;DHT22;22654;51.054;3.654;2022-10-31T16:59:26;16.50;99.90
36660;DHT22;22654;51.054;3.654;2022-10-31T17:01:52;16.40;99.90
36660;DHT22;22654;51.054;3.654;2022-10-31T17:04:19;16.40;99.90
36660;DHT22;22654;51.054;3.654;2022-10-31T17:06:45;16.50;99.90
36660;DHT22;22654;51.054;3.654;2022-10-31T17:09:11;16.50;99.90
36660;DHT22;22654;51.054;3.654;2022-10-31T17:11:40;16.50;99.90
36660;DHT22;22654;51.054;3.654;2022-10-31T17:14:08;16.40;99.90
36660;DHT22;22654;51.054;3.654;2022-10-31T17:16:34;16.50;99.90
36660;DHT22;22654;51.054;3.654;2022-10-31T17:19:00;16.40;99.90
36660;DHT22;22654;51.054;3.654;2022-10-31T17:21:26;16.20;99.90
36660;DHT22;22654;51.054;3.654;2022-10-31T17:23:52;16.30;99.90
36660;DHT22;22654;51.054;3.654;2022-10-31T17:26:19;16.20;99.90
36660;DHT22;22654;51.054;3.654;2022-10-31T17:28:45;16.10;99.90
36660;DHT22;22654;51.054;3.654;2022-10-31T17:31:30;16.10;99.90
36660;DHT22;22654;51.054;3.654;2022-10-31T17:33:58;16.10;99.90
36660;DHT22;22654;51.054;3.654;2022-10-31T17:36:24;16.00;99.90
36660;DHT22;22654;51.054;3.654;2022-10-31T17:38:50;16.10;99.90
36660;DHT22;22654;51.054;3.654;2022-10-31T17:41:16;16.20;99.90
36660;DHT22;22654;51.054;3.654;2022-10-31T17:43:42;16.20;99.90
36660;DHT22;22654;51.054;3.654;2022-10-31T17:46:08;16.10;99.90
36660;DHT22;22654;51.054;3.654;2022-10-31T17:48:35;16.10;99.90
36660;DHT22;22654;51.054;3.654;2022-10-31T17:51:03;16.10;99.90
36660;DHT22;22654;51.054;3.654;2022-10-31T17:53:30;16.00;99.90
36660;DHT22;22654;51.054;3.654;2022-10-31T17:56:04;16.00;99.90
36660;DHT22;22654;51.054;3.654;2022-10-31T17:58:30;16.10;99.90
36660;DHT22;22654;51.054;3.654;2022-10-31T18:00:57;16.10;99.90
36660;DHT22;22654;51.054;3.654;2022-10-31T18:03:24;16.20;99.90
36660;DHT22;22654;51.054;3.654;2022-10-31T18:05:52;16.10;99.90
36660;DHT22;22654;51.054;3.654;2022-10-31T18:08:18;16.20;99.90
36660;DHT22;22654;51.054;3.654;2022-10-31T18:10:43;16.20;99.90
36660;DHT22;22654;51.054;3.654;2022-10-31T18:13:09;16.20;99.90
36660;DHT22;22654;51.054;3.654;2022-10-31T18:15:38;16.30;99.90
36660;DHT22;22654;51.054;3.654;2022-10-31T18:18:04;16.30;99.90
36660;DHT22;22654;51.054;3.654;2022-10-31T18:20:32;16.30;99.90
36660;DHT22;22654;51.054;3.654;2022-10-31T18:22:58;16.20;99.90
36660;DHT22;22654;51.054;3.654;2022-10-31T18:25:24;16.20;99.90
36660;DHT22;22654;51.054;3.654;2022-10-31T18:27:49;16.30;99.90
36660;DHT22;22654;51.054;3.654;2022-10-31T18:30:15;16.30;99.90
36660;DHT22;22654;51.054;3.654;2022-10-31T18:32:43;16.30;99.90
36660;DHT22;22654;51.054;3.654;2022-10-31T18:35:09;16.40;99.90